Time;durP1;ratioP1;P1;durP2;ratioP2;P2;SDS_P1;SDS_P2;PMS_P1;PMS_P2;Temp;Humidity;BMP_temperature;BMP_pressure;BME280_temperature;BME280_humidity;BME280_pressure;Samples;Min_cycle;Max_cycle;Signal;HPM_P1;HPM_P2
2021/05/25 00:02:09;;;;;;;0.53;0.40;;;;;;;10.26;92.07;99716.88;5072279;28;20174;-76
2021/05/25 00:04:35;;;;;;;0.27;0.27;;;;;;;10.23;92.22;99718.31;5072889;28;20198;-77
2021/05/25 00:07:01;;;;;;;0.30;0.30;;;;;;;10.24;91.85;99717.19;5072548;28;20237;-76
2021/05/25 00:09:26;;;;;;;0.23;0.23;;;;;;;10.25;91.87;99720.72;5072372;28;20208;-76
2021/05/25 00:11:52;;;;;;;0.30;0.30;;;;;;;10.23;91.93;99729.25;5072536;28;20178;-76
2021/05/25 00:14:20;;;;;;;0.20;0.20;;;;;;;10.22;91.85;99724.91;5072710;28;20193;-76
2021/05/25 00:16:50;;;;;;;0.40;0.40;;;;;;;10.17;92.26;99733.25;5071085;28;20175;-77
2021/05/25 00:19:16;;;;;;;0.30;0.30;;;;;;;10.18;92.90;99748.50;5071836;28;20214;-76
2021/05/25 00:21:42;;;;;;;0.97;0.30;;;;;;;10.16;93.35;99756.22;5072473;28;20261;-75
2021/05/25 00:24:08;;;;;;;0.40;0.40;;;;;;;10.18;92.92;99764.09;5074435;28;20266;-73
2021/05/25 00:26:34;;;;;;;0.23;0.20;;;;;;;10.15;93.00;99754.63;5073175;28;20175;-73
2021/05/25 00:28:59;;;;;;;0.47;0.43;;;;;;;10.21;92.73;99752.50;5072150;28;20178;-73
2021/05/25 00:31:24;;;;;;;0.27;0.27;;;;;;;10.22;93.40;99760.41;5072141;28;20228;-73
2021/05/25 00:33:50;;;;;;;0.40;0.20;;;;;;;10.21;92.85;99753.34;5072079;28;20178;-73
2021/05/25 00:36:15;;;;;;;0.30;0.30;;;;;;;10.20;93.21;99756.38;5072002;28;20206;-73
2021/05/25 00:38:41;;;;;;;0.30;0.30;;;;;;;10.20;93.10;99761.84;5071846;28;20177;-74
2021/05/25 00:41:06;;;;;;;0.60;0.30;;;;;;;10.22;93.03;99765.06;5071878;28;20213;-74
2021/05/25 00:43:31;;;;;;;0.10;0.10;;;;;;;10.24;93.31;99762.81;5072455;28;20577;-75
2021/05/25 00:45:57;;;;;;;0.30;0.30;;;;;;;10.30;93.67;99769.72;5071804;28;20178;-74
2021/05/25 00:48:22;;;;;;;0.43;0.33;;;;;;;10.32;93.16;99767.44;5071645;28;20253;-74
2021/05/25 00:50:48;;;;;;;0.70;0.20;;;;;;;10.33;92.87;99772.59;5071679;28;20570;-74
2021/05/25 00:53:14;;;;;;;0.60;0.30;;;;;;;10.40;92.91;99763.88;5071531;28;20653;-74
2021/05/25 00:55:40;;;;;;;1.70;0.23;;;;;;;10.43;92.42;99771.44;5071620;28;20513;-74
2021/05/25 00:58:08;;;;;;;0.37;0.30;;;;;;;10.42;91.62;99764.38;5071411;28;20170;-74
2021/05/25 01:00:37;;;;;;;0.63;0.40;;;;;;;10.45;91.83;99763.72;5071204;28;20213;-74
2021/05/25 01:03:04;;;;;;;0.50;0.50;;;;;;;10.40;92.41;99766.59;5071418;28;20200;-75
2021/05/25 01:05:29;;;;;;;0.40;0.40;;;;;;;10.43;92.18;99763.25;5071434;28;20253;-74
2021/05/25 01:07:55;;;;;;;0.50;0.30;;;;;;;10.50;91.66;99768.97;5071265;28;20277;-74
2021/05/25 01:10:30;;;;;;;0.27;0.27;;;;;;;10.46;91.70;99754.38;5071415;28;20166;-74
2021/05/25 01:13:03;;;;;;;0.30;0.30;;;;;;;10.52;90.91;99760.47;5070554;28;20159;-74
2021/05/25 01:15:28;;;;;;;0.40;0.40;;;;;;;10.52;90.50;99758.53;5071284;28;20165;-74
2021/05/25 01:17:55;;;;;;;0.20;0.20;;;;;;;10.41;91.60;99749.09;5071126;28;20531;-74
2021/05/25 01:20:24;;;;;;;0.30;0.30;;;;;;;10.30;92.25;99747.88;5070837;28;20209;-75
2021/05/25 01:22:49;;;;;;;0.30;0.30;;;;;;;10.42;92.35;99737.06;5071052;28;20171;-75
2021/05/25 01:25:16;;;;;;;0.43;0.43;;;;;;;10.54;91.65;99728.16;5071096;28;20224;-74
2021/05/25 01:27:48;;;;;;;0.30;0.30;;;;;;;10.38;92.42;99728.69;5071107;28;20653;-74
2021/05/25 01:30:14;;;;;;;0.50;0.50;;;;;;;10.55;92.03;99738.75;5071130;28;20246;-73
2021/05/25 01:32:40;;;;;;;0.30;0.30;;;;;;;10.64;91.08;99747.72;5070967;28;20174;-74
2021/05/25 01:35:06;;;;;;;0.30;0.30;;;;;;;10.76;91.10;99744.28;5069598;28;20191;-75
2021/05/25 01:37:31;;;;;;;0.47;0.40;;;;;;;10.92;90.99;99749.97;5071170;28;20201;-75
2021/05/25 01:39:56;;;;;;;0.50;0.40;;;;;;;10.79;90.48;99751.03;5070695;28;20194;-75
2021/05/25 01:42:31;;;;;;;0.33;0.30;;;;;;;10.81;90.57;99752.28;5070960;28;20682;-74
2021/05/25 01:44:56;;;;;;;0.20;0.20;;;;;;;10.71;90.71;99744.47;5070905;28;20163;-74
2021/05/25 01:47:21;;;;;;;0.40;0.40;;;;;;;10.81;89.23;99749.56;5070742;28;20548;-74
2021/05/25 01:49:47;;;;;;;0.30;0.30;;;;;;;10.58;89.24;99746.31;5070771;28;20393;-75
2021/05/25 01:52:13;;;;;;;1.57;0.67;;;;;;;10.64;88.33;99750.44;5070706;28;20665;-74
2021/05/25 01:54:38;;;;;;;5.93;0.60;;;;;;;10.63;88.95;99754.31;5070757;28;20175;-74
2021/05/25 01:57:04;;;;;;;0.50;0.50;;;;;;;10.56;88.20;99751.31;5071071;28;20683;-76
2021/05/25 01:59:30;;;;;;;0.50;0.50;;;;;;;10.57;87.92;99755.63;5070339;28;20558;-73
2021/05/25 02:01:55;;;;;;;0.20;0.20;;;;;;;10.50;88.28;99760.00;5070735;28;20213;-74
2021/05/25 02:04:21;;;;;;;0.60;0.57;;;;;;;10.41;88.56;99755.38;5070696;28;20171;-74
2021/05/25 02:06:46;;;;;;;0.23;0.23;;;;;;;10.37;89.01;99743.50;5070686;28;20230;-75
2021/05/25 02:09:11;;;;;;;0.33;0.30;;;;;;;10.35;87.60;99744.94;5070446;28;20638;-75
2021/05/25 02:11:37;;;;;;;0.83;0.30;;;;;;;10.31;88.00;99749.47;5070808;28;20641;-77
2021/05/25 02:14:03;;;;;;;0.40;0.40;;;;;;;10.25;88.45;99756.22;5070910;28;20171;-74
2021/05/25 02:16:28;;;;;;;0.80;0.80;;;;;;;10.21;88.01;99749.78;5070623;28;20656;-76
2021/05/25 02:18:53;;;;;;;0.20;0.20;;;;;;;10.14;87.58;99756.56;5070259;28;20224;-76
2021/05/25 02:21:22;;;;;;;0.20;0.20;;;;;;;10.09;88.26;99756.72;5070646;28;20170;-76
2021/05/25 02:23:49;;;;;;;0.23;0.23;;;;;;;10.05;87.70;99755.75;5071492;28;20178;-75
2021/05/25 02:26:15;;;;;;;0.20;0.20;;;;;;;10.02;88.21;99752.88;5074627;28;20170;-76
2021/05/25 02:28:41;;;;;;;0.33;0.33;;;;;;;10.01;87.27;99746.63;5074337;28;20257;-75
2021/05/25 02:31:07;;;;;;;0.50;0.20;;;;;;;9.91;87.09;99752.41;5073131;28;20174;-76
2021/05/25 02:33:34;;;;;;;0.00;0.00;;;;;;;9.91;86.54;99757.88;5074180;28;20175;-76
2021/05/25 02:36:00;;;;;;;0.40;0.30;;;;;;;9.90;86.55;99755.47;5074167;28;20240;-75
2021/05/25 02:38:27;;;;;;;0.30;0.30;;;;;;;9.93;86.00;99757.56;5074047;28;20265;-76
2021/05/25 02:40:53;;;;;;;0.40;0.40;;;;;;;9.95;85.66;99760.75;5074069;28;20740;-76
2021/05/25 02:43:23;;;;;;;0.10;0.10;;;;;;;9.98;85.13;99763.66;5074072;28;20261;-76
2021/05/25 02:45:50;;;;;;;0.23;0.23;;;;;;;10.00;84.76;99768.78;5074017;28;20642;-73
2021/05/25 02:48:16;;;;;;;0.20;0.20;;;;;;;9.96;84.03;99771.34;5073734;28;20178;-75
2021/05/25 02:50:42;;;;;;;0.10;0.10;;;;;;;9.96;84.79;99776.00;5073949;28;20671;-75
2021/05/25 02:53:08;;;;;;;0.67;0.67;;;;;;;9.94;83.79;99773.59;5073920;28;20839;-75
2021/05/25 02:55:36;;;;;;;0.30;0.30;;;;;;;9.97;84.37;99783.06;5074156;28;20300;-74
2021/05/25 02:58:04;;;;;;;0.30;0.30;;;;;;;9.91;86.05;99789.81;5072412;28;20183;-75
2021/05/25 03:00:36;;;;;;;0.23;0.23;;;;;;;9.93;86.59;99788.38;5073488;28;20209;-76
2021/05/25 03:03:01;;;;;;;0.40;0.40;;;;;;;9.95;85.25;99790.78;5073628;28;20166;-76
2021/05/25 03:05:27;;;;;;;0.20;0.20;;;;;;;9.92;85.98;99792.22;5073575;28;20181;-76
2021/05/25 03:07:55;;;;;;;0.10;0.10;;;;;;;9.87;86.01;99786.94;5073522;28;20186;-76
2021/05/25 03:10:23;;;;;;;0.20;0.20;;;;;;;9.91;85.33;99798.00;5073532;28;20196;-74
2021/05/25 03:12:49;;;;;;;0.20;0.20;;;;;;;9.88;84.44;99793.19;5073483;28;20957;-75
2021/05/25 03:15:17;;;;;;;0.10;0.10;;;;;;;9.84;84.34;99795.78;5073340;28;20209;-76
2021/05/25 03:17:43;;;;;;;0.20;0.20;;;;;;;9.79;84.55;99791.25;5073578;28;20190;-77
2021/05/25 03:20:10;;;;;;;0.43;0.20;;;;;;;9.74;84.92;99799.63;5073055;28;20217;-76
2021/05/25 03:22:36;;;;;;;0.10;0.10;;;;;;;9.72;83.83;99801.88;5073296;28;20194;-76
2021/05/25 03:25:03;;;;;;;0.30;0.30;;;;;;;9.66;84.06;99802.34;5073363;28;20673;-74
2021/05/25 03:27:28;;;;;;;0.33;0.20;;;;;;;9.62;84.05;99804.91;5073120;28;20178;-76
2021/05/25 03:29:53;;;;;;;0.30;0.30;;;;;;;9.57;83.22;99810.53;5073108;28;20179;-77
2021/05/25 03:32:19;;;;;;;0.10;0.10;;;;;;;9.50;82.57;99802.81;5073239;28;20224;-77
2021/05/25 03:34:44;;;;;;;0.03;0.03;;;;;;;9.45;82.83;99804.91;5073212;28;20183;-75
2021/05/25 03:37:10;;;;;;;0.10;0.10;;;;;;;9.41;82.36;99804.75;5070923;28;20265;-76
2021/05/25 03:39:35;;;;;;;0.20;0.20;;;;;;;9.40;82.50;99810.50;5073032;28;20194;-76
2021/05/25 03:42:01;;;;;;;0.40;0.40;;;;;;;9.39;83.07;99819.78;5071583;28;20553;-76
2021/05/25 03:44:27;;;;;;;0.33;0.27;;;;;;;9.40;83.52;99813.22;5073264;28;20171;-76
2021/05/25 03:46:53;;;;;;;0.47;0.23;;;;;;;9.36;83.01;99815.78;5072952;28;20261;-76
2021/05/25 03:49:19;;;;;;;0.20;0.20;;;;;;;9.42;82.93;99820.00;5072766;28;20182;-76
2021/05/25 03:51:44;;;;;;;0.30;0.30;;;;;;;9.42;82.61;99822.72;5072838;28;20652;-76
2021/05/25 03:54:15;;;;;;;0.20;0.20;;;;;;;9.45;82.29;99824.78;5071384;28;20574;-75
2021/05/25 03:56:52;;;;;;;0.00;0.00;;;;;;;9.48;81.48;99821.44;5072733;28;20163;-74
2021/05/25 03:59:17;;;;;;;0.10;0.10;;;;;;;9.45;82.49;99829.44;5072450;28;20297;-74
2021/05/25 04:01:43;;;;;;;0.20;0.20;;;;;;;9.47;83.03;99836.19;5072598;28;20615;-76
2021/05/25 04:04:10;;;;;;;0.10;0.10;;;;;;;9.49;82.18;99844.03;5072540;28;20697;-74
2021/05/25 04:06:35;;;;;;;0.23;0.20;;;;;;;9.49;81.78;99842.13;5072629;28;20199;-77
2021/05/25 04:09:01;;;;;;;0.40;0.20;;;;;;;9.51;81.43;99848.06;5072375;28;20210;-75
2021/05/25 04:11:26;;;;;;;0.10;0.10;;;;;;;9.53;81.67;99853.97;5071181;28;20679;-75
2021/05/25 04:13:51;;;;;;;0.10;0.10;;;;;;;9.54;83.95;99857.50;5072381;28;20217;-75
2021/05/25 04:16:17;;;;;;;0.17;0.17;;;;;;;9.33;82.45;99851.88;5072395;28;20183;-76
2021/05/25 04:18:43;;;;;;;0.67;0.67;;;;;;;9.07;81.69;99854.53;5072200;28;20171;-75
2021/05/25 04:21:09;;;;;;;0.20;0.20;;;;;;;8.91;83.17;99862.31;5071791;28;20234;-76
2021/05/25 04:23:36;;;;;;;0.10;0.10;;;;;;;8.78;83.66;99854.25;5072257;28;20175;-74
2021/05/25 04:26:02;;;;;;;0.67;0.67;;;;;;;8.71;85.02;99854.72;5070899;28;20615;-73
2021/05/25 04:28:27;;;;;;;0.00;0.00;;;;;;;8.63;87.24;99844.56;5072053;28;20213;-74
2021/05/25 04:30:53;;;;;;;0.13;0.10;;;;;;;8.60;88.71;99845.19;5072028;28;20511;-73
2021/05/25 04:33:18;;;;;;;0.10;0.10;;;;;;;8.55;89.73;99842.63;5072392;28;20185;-76
2021/05/25 04:35:44;;;;;;;0.10;0.10;;;;;;;8.54;90.13;99849.97;5071815;28;20262;-75
2021/05/25 04:38:09;;;;;;;0.27;0.10;;;;;;;8.51;89.99;99847.06;5071833;28;20261;-73
2021/05/25 04:40:35;;;;;;;0.00;0.00;;;;;;;8.47;88.36;99857.78;5070408;28;20263;-75
2021/05/25 04:43:02;;;;;;;0.17;0.17;;;;;;;8.46;88.92;99858.09;5071854;28;20683;-76
2021/05/25 04:45:28;;;;;;;0.00;0.00;;;;;;;8.52;89.48;99863.06;5071793;28;20601;-75
2021/05/25 04:47:54;;;;;;;0.10;0.10;;;;;;;8.55;88.75;99859.75;5071473;28;20211;-76
2021/05/25 04:50:20;;;;;;;0.30;0.20;;;;;;;8.64;89.16;99859.78;5071553;28;20684;-75
2021/05/25 04:52:46;;;;;;;0.50;0.50;;;;;;;8.73;88.31;99855.19;5071604;28;20510;-76
2021/05/25 04:55:15;;;;;;;0.20;0.20;;;;;;;8.83;88.79;99851.41;5071528;28;20167;-77
2021/05/25 04:57:41;;;;;;;0.10;0.10;;;;;;;8.98;87.40;99863.81;5071388;28;20178;-75
2021/05/25 05:00:09;;;;;;;0.43;0.43;;;;;;;9.15;88.51;99861.13;5071244;28;20214;-76
2021/05/25 05:02:35;;;;;;;0.00;0.00;;;;;;;9.29;87.61;99859.09;5071352;28;20693;-75
2021/05/25 05:05:00;;;;;;;0.20;0.20;;;;;;;9.44;86.03;99864.09;5069976;28;20277;-74
2021/05/25 05:07:26;;;;;;;0.13;0.13;;;;;;;9.60;85.64;99858.19;5071315;28;20748;-73
2021/05/25 05:09:51;;;;;;;0.10;0.10;;;;;;;9.66;84.59;99867.81;5071197;28;20182;-76
2021/05/25 05:12:17;;;;;;;0.63;0.63;;;;;;;9.71;83.33;99863.00;5071463;28;20194;-75
2021/05/25 05:14:42;;;;;;;0.20;0.20;;;;;;;9.83;84.12;99867.81;5071237;28;20618;-77
2021/05/25 05:17:07;;;;;;;0.57;0.57;;;;;;;9.83;81.95;99867.81;5071152;28;20175;-77
2021/05/25 05:19:33;;;;;;;0.10;0.10;;;;;;;9.85;82.73;99862.84;5071033;28;20213;-76
2021/05/25 05:21:58;;;;;;;0.03;0.00;;;;;;;9.84;81.67;99870.25;5071084;28;20178;-75
2021/05/25 05:24:24;;;;;;;0.10;0.10;;;;;;;9.80;80.66;99863.78;5071228;28;20261;-78
2021/05/25 05:26:49;;;;;;;0.00;0.00;;;;;;;9.86;80.15;99874.56;5069676;28;20182;-75
2021/05/25 05:29:14;;;;;;;0.00;0.00;;;;;;;9.89;79.46;99874.72;5069555;28;20170;-76
2021/05/25 05:31:40;;;;;;;0.20;0.20;;;;;;;9.95;78.83;99867.97;5070947;28;20622;-77
2021/05/25 05:34:08;;;;;;;0.00;0.00;;;;;;;10.09;80.11;99874.06;5071206;28;20680;-74
2021/05/25 05:36:33;;;;;;;0.10;0.10;;;;;;;10.27;79.04;99869.44;5071407;28;20657;-73
2021/05/25 05:38:59;;;;;;;0.10;0.10;;;;;;;10.43;79.08;99875.22;5071250;28;20228;-74
2021/05/25 05:41:24;;;;;;;0.00;0.00;;;;;;;10.40;78.28;99873.91;5070832;28;20217;-75
2021/05/25 05:43:50;;;;;;;0.10;0.10;;;;;;;10.27;77.50;99866.72;5070895;28;20175;-75
2021/05/25 05:46:17;;;;;;;0.20;0.20;;;;;;;10.24;77.53;99869.28;5070764;28;20170;-76
2021/05/25 05:48:42;;;;;;;0.10;0.10;;;;;;;10.22;79.62;99877.00;5070681;28;20262;-76
2021/05/25 05:51:08;;;;;;;3.43;0.07;;;;;;;10.14;77.03;99884.84;5070647;28;20273;-77
2021/05/25 05:53:33;;;;;;;0.00;0.00;;;;;;;10.10;76.93;99886.59;5069532;28;20326;-76
2021/05/25 05:55:59;;;;;;;0.07;0.07;;;;;;;10.08;78.07;99894.31;5070935;28;20265;-76
2021/05/25 05:58:24;;;;;;;0.10;0.10;;;;;;;10.01;77.71;99888.53;5070477;28;20174;-77
2021/05/25 06:00:49;;;;;;;0.00;0.00;;;;;;;10.01;77.59;99888.53;5070477;28;20237;-76
2021/05/25 06:03:15;;;;;;;0.13;0.13;;;;;;;10.00;77.88;99892.41;5070883;28;20241;-75
2021/05/25 06:05:42;;;;;;;0.00;0.00;;;;;;;10.07;77.00;99891.91;5070655;28;20179;-77
2021/05/25 06:08:09;;;;;;;0.13;0.13;;;;;;;10.01;76.47;99888.53;5071035;28;20170;-76
2021/05/25 06:10:37;;;;;;;0.30;0.30;;;;;;;10.02;77.45;99909.25;5070501;28;20586;-75
2021/05/25 06:13:04;;;;;;;1.70;0.63;;;;;;;10.05;75.97;99910.53;5070673;28;20547;-75
2021/05/25 06:15:30;;;;;;;0.20;0.20;;;;;;;9.94;74.90;99904.56;5070953;28;20324;-73
2021/05/25 06:17:55;;;;;;;0.10;0.10;;;;;;;9.96;76.49;99906.97;5071196;28;20257;-75
2021/05/25 06:20:20;;;;;;;0.00;0.00;;;;;;;9.99;76.94;99901.72;5070381;28;20206;-75
2021/05/25 06:22:46;;;;;;;0.00;0.00;;;;;;;10.02;76.31;99903.00;5070455;28;20174;-74
2021/05/25 06:25:13;;;;;;;0.07;0.07;;;;;;;10.01;76.44;99894.00;5070320;28;20175;-75
2021/05/25 06:27:39;;;;;;;0.60;0.60;;;;;;;10.10;77.08;99902.97;5070747;28;20171;-74
2021/05/25 06:30:07;;;;;;;0.00;0.00;;;;;;;10.16;75.14;99913.75;5072404;28;20586;-76
2021/05/25 06:32:33;;;;;;;6.93;0.30;;;;;;;10.16;75.00;99906.34;5070957;28;20174;-73
2021/05/25 06:34:59;;;;;;;0.10;0.10;;;;;;;10.17;75.58;99902.50;5070401;28;20181;-74
2021/05/25 06:37:24;;;;;;;0.30;0.30;;;;;;;10.21;75.51;99917.13;5070450;28;20175;-73
2021/05/25 06:39:49;;;;;;;0.10;0.10;;;;;;;10.20;74.49;99901.84;5070264;28;20201;-73
2021/05/25 06:42:15;;;;;;;0.03;0.03;;;;;;;10.27;74.85;99904.13;5070387;28;20206;-73
2021/05/25 06:44:40;;;;;;;0.10;0.10;;;;;;;10.25;74.87;99906.38;5070307;28;20201;-73
2021/05/25 06:47:05;;;;;;;0.10;0.10;;;;;;;10.31;75.00;99905.09;5070176;28;20210;-72
2021/05/25 06:49:31;;;;;;;0.20;0.20;;;;;;;10.28;75.11;99911.22;5070380;28;20174;-73
2021/05/25 06:51:56;;;;;;;0.00;0.00;;;;;;;10.25;75.20;99909.91;5070230;28;20175;-72
2021/05/25 06:54:22;;;;;;;0.23;0.23;;;;;;;10.21;75.38;99908.94;5070032;28;20613;-72
2021/05/25 06:56:47;;;;;;;0.00;0.00;;;;;;;10.22;74.73;99912.47;5070117;28;20186;-74
2021/05/25 06:59:13;;;;;;;0.20;0.20;;;;;;;10.16;75.46;99914.53;5069826;28;20210;-74
2021/05/25 07:01:38;;;;;;;2.47;0.20;;;;;;;10.15;75.87;99915.69;5070074;28;20182;-73
2021/05/25 07:04:04;;;;;;;0.20;0.10;;;;;;;10.20;76.00;99917.44;5070159;28;20270;-75
2021/05/25 07:06:29;;;;;;;0.80;0.30;;;;;;;10.23;76.63;99917.63;5069993;28;20206;-75
2021/05/25 07:08:54;;;;;;;0.23;0.20;;;;;;;10.27;76.64;99921.31;5069862;28;20662;-75
2021/05/25 07:11:21;;;;;;;0.00;0.00;;;;;;;10.17;74.74;99920.81;5071518;28;20217;-75
2021/05/25 07:13:47;;;;;;;0.10;0.10;;;;;;;10.24;75.76;99916.47;5071471;28;20183;-73
2021/05/25 07:16:13;;;;;;;0.20;0.20;;;;;;;10.36;74.43;99922.09;5073309;28;20183;-74
2021/05/25 07:18:39;;;;;;;0.10;0.10;;;;;;;10.57;75.65;99925.00;5071915;28;20175;-74
2021/05/25 07:21:04;;;;;;;0.33;0.33;;;;;;;10.61;74.25;99923.22;5053238;28;20202;-75
2021/05/25 07:23:29;;;;;;;0.00;0.00;;;;;;;10.61;73.70;99920.47;5053464;28;20185;-72
2021/05/25 07:25:55;;;;;;;0.50;0.27;;;;;;;10.64;73.72;99922.56;5053295;28;20651;-72
2021/05/25 07:28:20;;;;;;;0.10;0.10;;;;;;;10.60;74.24;99918.88;5053376;28;20262;-74
2021/05/25 07:30:47;;;;;;;0.10;0.10;;;;;;;10.56;73.68;99919.81;5053222;28;20198;-74
2021/05/25 07:33:13;;;;;;;0.33;0.33;;;;;;;10.49;74.12;99933.97;5065651;28;20175;-74
2021/05/25 07:35:38;;;;;;;0.50;0.50;;;;;;;10.33;74.80;99938.34;5073169;28;20583;-74
2021/05/25 07:38:04;;;;;;;0.10;0.00;;;;;;;10.21;76.45;99943.59;5072884;28;20178;-75
2021/05/25 07:40:29;;;;;;;0.00;0.00;;;;;;;10.14;77.13;99936.72;5073312;28;20209;-78
2021/05/25 07:42:55;;;;;;;0.20;0.20;;;;;;;10.12;77.69;99929.94;5073103;28;20181;-74
2021/05/25 07:45:20;;;;;;;0.10;0.10;;;;;;;10.16;77.30;99943.78;5072948;28;20182;-74
2021/05/25 07:47:45;;;;;;;0.20;0.20;;;;;;;10.16;77.95;99936.38;5073215;28;20174;-74
2021/05/25 07:50:14;;;;;;;0.47;0.47;;;;;;;10.18;77.48;99938.78;5073407;28;20531;-74
2021/05/25 07:52:52;;;;;;;0.00;0.00;;;;;;;10.24;76.51;99935.59;5072970;28;20181;-77
2021/05/25 07:55:21;;;;;;;0.43;0.30;;;;;;;10.39;76.41;99931.56;5069450;28;20178;-73
2021/05/25 07:57:47;;;;;;;0.10;0.10;;;;;;;10.79;77.70;99929.44;5069756;28;20182;-75
2021/05/25 08:00:14;;;;;;;0.20;0.20;;;;;;;10.95;74.26;99926.97;5071759;28;20206;-75
2021/05/25 08:02:40;;;;;;;0.60;0.20;;;;;;;10.94;74.69;99928.91;5072197;28;20256;-76
2021/05/25 08:05:06;;;;;;;0.20;0.10;;;;;;;11.01;75.34;99926.47;5072449;28;20171;-76
2021/05/25 08:07:32;;;;;;;0.20;0.20;;;;;;;11.06;73.40;99924.69;5072519;28;20183;-75
2021/05/25 08:09:57;;;;;;;0.37;0.13;;;;;;;10.88;73.03;99923.94;5072510;28;20692;-76
2021/05/25 08:12:23;;;;;;;0.20;0.00;;;;;;;10.97;73.06;99922.78;5072673;28;20171;-75
2021/05/25 08:14:49;;;;;;;0.20;0.00;;;;;;;11.15;72.26;99920.81;5071919;28;20262;-74
2021/05/25 08:17:22;;;;;;;0.00;0.00;;;;;;;11.41;71.31;99923.41;5068612;28;20266;-74
2021/05/25 08:19:49;;;;;;;0.00;0.00;;;;;;;11.62;70.87;99926.19;5070815;28;20236;-73
2021/05/25 08:22:15;;;;;;;0.10;0.07;;;;;;;12.11;69.04;99932.81;5069508;28;20186;-72
2021/05/25 08:24:41;;;;;;;0.00;0.00;;;;;;;12.03;67.21;99930.16;5066968;28;20314;-73
2021/05/25 08:27:06;;;;;;;0.10;0.10;;;;;;;12.02;68.17;99923.88;5065814;28;20198;-72
2021/05/25 08:29:32;;;;;;;0.00;0.00;;;;;;;11.82;67.59;99922.72;5069627;28;20226;-75
2021/05/25 08:31:57;;;;;;;0.00;0.00;;;;;;;11.71;68.82;99932.41;5070907;28;20170;-73
2021/05/25 08:34:24;;;;;;;0.87;0.80;;;;;;;11.48;70.92;99928.38;5069846;28;20573;-73
2021/05/25 08:36:50;;;;;;;0.00;0.00;;;;;;;11.47;71.84;99945.91;5071098;28;20176;-74
2021/05/25 08:39:15;;;;;;;0.00;0.00;;;;;;;11.45;72.35;99939.97;5069960;28;20191;-73
2021/05/25 08:41:40;;;;;;;0.00;0.00;;;;;;;11.49;70.39;99949.13;5069629;28;20220;-75
2021/05/25 08:44:06;;;;;;;0.00;0.00;;;;;;;11.42;69.23;99954.28;5065115;28;20184;-75
2021/05/25 08:46:33;;;;;;;0.00;0.00;;;;;;;11.43;70.96;99958.63;5063439;28;20170;-77
2021/05/25 08:48:59;;;;;;;0.00;0.00;;;;;;;11.69;70.90;99953.84;5070686;28;20265;-74
2021/05/25 08:51:24;;;;;;;0.00;0.00;;;;;;;11.80;70.13;99941.41;5071353;28;20261;-74
2021/05/25 08:53:50;;;;;;;0.87;0.70;;;;;;;11.66;70.26;99956.44;5056076;28;20244;-74
2021/05/25 08:56:16;;;;;;;1.03;0.00;;;;;;;11.41;72.44;99960.88;5069685;28;20275;-72
2021/05/25 08:58:42;;;;;;;0.10;0.00;;;;;;;10.88;77.96;99971.22;5068843;28;20186;-72
2021/05/25 09:01:07;;;;;;;0.00;0.00;;;;;;;10.33;77.50;99954.72;5064822;28;20218;-74
2021/05/25 09:03:33;;;;;;;0.00;0.00;;;;;;;9.96;78.40;99951.44;5059302;28;20386;-75
2021/05/25 09:06:09;;;;;;;0.70;0.70;;;;;;;9.71;79.55;99957.69;5071150;28;20257;-74
2021/05/25 09:08:36;;;;;;;0.00;0.00;;;;;;;9.31;81.17;99963.16;5069651;28;20202;-74
2021/05/25 09:11:09;;;;;;;0.33;0.10;;;;;;;9.30;82.78;99953.38;5070675;28;20490;-76
2021/05/25 09:13:35;;;;;;;0.00;0.00;;;;;;;9.30;82.42;99952.56;5070964;28;20175;-73
2021/05/25 09:16:02;;;;;;;0.00;0.00;;;;;;;9.48;85.80;99946.06;5070747;28;20175;-74
2021/05/25 09:18:30;;;;;;;0.00;0.00;;;;;;;9.54;85.10;99951.03;5069354;28;20254;-76
2021/05/25 09:21:05;;;;;;;0.00;0.00;;;;;;;9.71;86.41;99944.03;5070785;28;20206;-76
2021/05/25 09:23:33;;;;;;;0.00;0.00;;;;;;;10.01;87.42;99940.41;5070830;28;20534;-74
2021/05/25 09:26:09;;;;;;;0.00;0.00;;;;;;;10.13;86.59;99943.28;5070706;28;20363;-74
2021/05/25 09:28:36;;;;;;;0.00;0.00;;;;;;;10.26;84.86;99933.34;5070652;28;20664;-74
2021/05/25 09:31:05;;;;;;;0.00;0.00;;;;;;;10.60;86.29;99940.72;5070804;28;20328;-77
2021/05/25 09:33:34;;;;;;;0.00;0.00;;;;;;;11.07;85.68;99943.50;5069882;28;20252;-74
2021/05/25 09:36:09;;;;;;;0.00;0.00;;;;;;;11.18;83.40;99936.56;5070732;28;20183;-76
2021/05/25 09:38:36;;;;;;;0.10;0.10;;;;;;;11.22;80.62;99931.22;5070482;28;20820;-75
2021/05/25 09:41:02;;;;;;;0.00;0.00;;;;;;;11.19;78.62;99940.09;5070644;28;20208;-76
2021/05/25 09:43:33;;;;;;;0.00;0.00;;;;;;;11.12;77.17;99932.38;5070659;28;20175;-76
2021/05/25 09:46:13;;;;;;;0.20;0.13;;;;;;;11.02;78.84;99933.56;5070657;28;20567;-76
2021/05/25 09:48:41;;;;;;;0.00;0.00;;;;;;;10.99;78.39;99938.84;5070630;28;20174;-73
2021/05/25 09:51:21;;;;;;;0.33;0.00;;;;;;;10.79;77.55;99943.09;5067513;28;20178;-76
2021/05/25 09:53:48;;;;;;;0.00;0.00;;;;;;;10.46;79.62;99944.75;5069474;28;20201;-76
2021/05/25 09:56:29;;;;;;;0.00;0.00;;;;;;;10.03;82.04;99950.97;5070298;28;20178;-77
2021/05/25 09:58:56;;;;;;;0.00;0.00;;;;;;;9.45;83.62;99938.50;5057336;28;20257;-75
2021/05/25 10:01:37;;;;;;;0.03;0.00;;;;;;;9.34;86.31;99951.63;5050383;28;20203;-76
2021/05/25 10:04:13;;;;;;;0.00;0.00;;;;;;;9.38;88.16;99946.31;5049208;28;20765;-76
2021/05/25 10:06:44;;;;;;;0.00;0.00;;;;;;;9.34;87.08;99948.09;5050484;28;20183;-74
2021/05/25 10:09:11;;;;;;;0.00;0.00;;;;;;;9.61;88.03;99955.25;5050548;28;20534;-76
2021/05/25 10:11:41;;;;;;;0.10;0.10;;;;;;;10.17;89.10;99948.09;5050523;28;20194;-74
2021/05/25 10:14:09;;;;;;;0.10;0.10;;;;;;;10.45;87.46;99940.44;5048868;28;20176;-74
2021/05/25 10:16:38;;;;;;;0.00;0.00;;;;;;;10.88;88.17;99943.09;5060260;28;20258;-75
2021/05/25 10:21:42;;;;;;;0.00;0.00;;;;;;;11.38;79.87;99942.41;5062395;28;20171;-74
2021/05/25 10:24:08;;;;;;;0.00;0.00;;;;;;;11.47;80.07;99934.97;5066521;28;20167;-74
2021/05/25 10:26:34;;;;;;;0.03;0.00;;;;;;;11.82;80.14;99921.91;5050334;28;20167;-74
2021/05/25 10:29:04;;;;;;;0.00;0.00;;;;;;;12.32;82.45;99924.59;5050186;28;20180;-76
2021/05/25 10:31:35;;;;;;;0.10;0.10;;;;;;;12.28;77.76;99923.66;5050114;28;20183;-76
2021/05/25 10:34:23;;;;;;;0.00;0.00;;;;;;;11.90;72.61;99918.31;5048919;28;20665;-74
2021/05/25 10:36:53;;;;;;;0.00;0.00;;;;;;;11.49;73.45;99933.50;5050143;28;20190;-75
2021/05/25 10:39:27;;;;;;;0.07;0.07;;;;;;;10.90;78.65;99959.94;5048548;28;20175;-75
2021/05/25 10:42:22;;;;;;;0.10;0.10;;;;;;;10.02;81.66;99974.75;5057702;28;20265;-75
2021/05/25 10:44:57;;;;;;;0.00;0.00;;;;;;;9.34;86.81;99991.72;5070567;28;20613;-74
2021/05/25 10:47:26;;;;;;;0.00;0.00;;;;;;;8.80;87.02;99994.44;5073883;28;20181;-74
2021/05/25 10:50:13;;;;;;;0.00;0.00;;;;;;;8.50;90.02;99989.75;5072469;28;20187;-74
2021/05/25 10:52:59;;;;;;;0.03;0.03;;;;;;;8.46;92.12;99983.31;5073846;28;20174;-74
2021/05/25 10:55:38;;;;;;;0.20;0.20;;;;;;;8.49;93.15;99988.94;5069687;28;20195;-73
2021/05/25 10:58:32;;;;;;;0.50;0.50;;;;;;;8.64;94.06;99988.56;5073592;28;20257;-74
2021/05/25 11:01:06;;;;;;;0.00;0.00;;;;;;;8.78;93.44;99988.50;5073622;28;20611;-74
2021/05/25 11:03:32;;;;;;;0.67;0.60;;;;;;;9.02;94.52;99981.94;5071851;28;20182;-75
2021/05/25 11:06:01;;;;;;;0.30;0.30;;;;;;;9.23;94.33;99993.88;5073456;28;20178;-74
2021/05/25 11:08:39;;;;;;;0.10;0.10;;;;;;;9.33;92.82;99976.47;5056537;28;20211;-74
2021/05/25 11:11:09;;;;;;;0.20;0.20;;;;;;;9.55;93.38;99984.59;5063038;28;20261;-76
2021/05/25 11:13:40;;;;;;;0.53;0.10;;;;;;;9.92;95.21;99975.03;5073582;28;20171;-75
2021/05/25 11:16:34;;;;;;;0.00;0.00;;;;;;;10.20;93.47;99972.03;5073602;28;20174;-73
2021/05/25 11:24:41;;;;;;;0.67;0.10;;;;;;;11.06;88.44;99969.22;5073444;28;20704;-73
2021/05/25 11:27:16;;;;;;;0.00;0.00;;;;;;;11.47;89.85;99960.41;5073278;28;20265;-74
2021/05/25 11:30:13;;;;;;;0.00;0.00;;;;;;;11.80;87.79;99968.78;5071966;28;20256;-76
2021/05/25 11:32:47;;;;;;;0.00;0.00;;;;;;;11.64;85.61;99964.97;5072670;28;20213;-75
2021/05/25 11:35:19;;;;;;;0.10;0.10;;;;;;;11.61;85.09;99952.75;5073184;28;20245;-74
2021/05/25 11:37:47;;;;;;;0.00;0.00;;;;;;;11.79;86.20;99961.69;5073211;28;20574;-75
2021/05/25 11:40:18;;;;;;;0.00;0.00;;;;;;;11.99;85.72;99973.78;5073071;28;20217;-74
2021/05/25 11:42:45;;;;;;;0.20;0.10;;;;;;;11.93;79.58;99955.19;5073056;28;20175;-75
2021/05/25 11:45:11;;;;;;;0.00;0.00;;;;;;;11.99;75.76;99951.09;5072951;28;20194;-75
2021/05/25 11:47:42;;;;;;;0.37;0.10;;;;;;;11.97;77.63;99951.44;5071578;28;20198;-77